Celebrity Galaxy — 9HJH9 — position and weather

sailwx.info

Track history (hours):
 
Tides and Currents Weather Stations Pressure Air Temp Water Temp Dewpoint Dewpoint Depression Visibility Wind Speed Wind Dir Waves Ship Positions

Celebrity Galaxy

Last reported at 2018-Sep-24 16:49 UTC. Time now 2018-Sep-24 21:22 UTC.
Position N 41°36' E 008°43'.

Length 262 m; draft 8.4 m.

Type: Passenger vessel. MMSI: 249051000.

Date/timePositionNaut miles runAvg speedWind from/ knotsBaromVisibWave heightAir tempDewpointWater temp
2018-Sep-24 16:49N 41°36' E 008°43'270 7.3
2018-Sep-23 03:47N 39°21' E 003°35'3 8.8
2018-Sep-23 03:30N 39°20' E 003°32'4 8.9
2018-Sep-23 03:03N 39°18' E 003°28'0 9.0
2018-Sep-23 03:00N 39°18' E 003°27'5 9.0
2018-Sep-23 02:30N 39°15' E 003°22'7 9.1
2018-Sep-23 01:46N 39°12' E 003°15'2 9.0
2018-Sep-23 01:30N 39°11' E 003°12'4 9.1
2018-Sep-23 01:04N 39°09' E 003°08'1 9.1
2018-Sep-23 01:00N 39°08' E 003°07'4 9.0
2018-Sep-23 00:30N 39°06' E 003°02'4 8.6
2018-Sep-23 00:04N 39°05' E 002°57'0 8.7
2018-Sep-23 00:01N 39°05' E 002°57'4 8.6
2018-Sep-22 23:30N 39°06' E 002°51'4 9.3
2018-Sep-22 23:01N 39°10' E 002°48'0 9.5
2018-Sep-22 23:00N 39°10' E 002°48'5 9.4
2018-Sep-22 22:30N 39°14' E 002°44'4 9.5
2018-Sep-22 22:03N 39°17' E 002°41'1 9.3
2018-Sep-22 22:00N 39°18' E 002°41'5 9.1
2018-Sep-22 21:30N 39°22' E 002°39'4 9.1
2018-Sep-22 21:03N 39°26' E 002°39'0 8.9
2018-Sep-22 21:00N 39°26' E 002°39'5 9.2
2018-Sep-22 20:30N 39°31' E 002°39'2 4.9
2018-Sep-22 20:04N 39°33' E 002°38'0 1.8
2018-Sep-22 20:00N 39°33' E 002°38'0 0.3
2018-Sep-22 19:30N 39°33' E 002°38'0 0.0
2018-Sep-22 19:03N 39°33' E 002°38'0 0.0
2018-Sep-22 19:00N 39°33' E 002°38'0 0.0
2018-Sep-22 18:27N 39°33' E 002°38'0 0.0
2018-Sep-22 18:03N 39°33' E 002°38'0 0.0
2018-Sep-22 18:00N 39°33' E 002°38'0 0.0
2018-Sep-22 17:30N 39°33' E 002°38'0 0.0
2018-Sep-22 17:03N 39°33' E 002°38'0 0.0
2018-Sep-22 17:00N 39°33' E 002°38'0 0.0
2018-Sep-22 16:30N 39°33' E 002°38'0 0.0
2018-Sep-22 16:03N 39°33' E 002°38'0 0.0
2018-Sep-22 16:00N 39°33' E 002°38'0 0.0
2018-Sep-22 15:30N 39°33' E 002°38'0 0.0
2018-Sep-22 15:00N 39°33' E 002°38'0 0.0
2018-Sep-22 14:30N 39°33' E 002°38'0 0.0
2018-Sep-22 14:00N 39°33' E 002°38'0 0.0
2018-Sep-22 13:30N 39°33' E 002°38'0 0.0
2018-Sep-22 13:03N 39°33' E 002°38'0 0.0
2018-Sep-22 13:00N 39°33' E 002°38'0 0.0
2018-Sep-22 12:30N 39°33' E 002°38'0 0.0
2018-Sep-22 12:03N 39°33' E 002°38'0 0.0
2018-Sep-22 12:00N 39°33' E 002°38'0 0.0
2018-Sep-22 11:30N 39°33' E 002°38'0 0.0
2018-Sep-22 11:03N 39°33' E 002°38'0 0.0
2018-Sep-22 11:00N 39°33' E 002°38'0 0.0
2018-Sep-22 10:27N 39°33' E 002°38'0 0.0
2018-Sep-22 10:03N 39°33' E 002°38'0 0.0
2018-Sep-22 10:00N 39°33' E 002°38'0 0.0
2018-Sep-22 09:27N 39°33' E 002°38'0 0.0
2018-Sep-22 09:00N 39°33' E 002°38'0 0.0
2018-Sep-22 08:27N 39°33' E 002°38'0 0.0
2018-Sep-22 08:03N 39°33' E 002°38'0 0.0
2018-Sep-22 08:00N 39°33' E 002°38'0 0.0
2018-Sep-22 07:30N 39°33' E 002°38'0 0.0
2018-Sep-22 07:03N 39°33' E 002°38'0 0.0
2018-Sep-22 06:57N 39°33' E 002°38'0 0.0
2018-Sep-22 06:30N 39°33' E 002°38'0 0.0
2018-Sep-22 06:03N 39°33' E 002°38'0 0.0
2018-Sep-22 06:00N 39°33' E 002°38'0 0.0
2018-Sep-22 05:30N 39°33' E 002°38'0 0.0
2018-Sep-22 05:03N 39°33' E 002°38'0 0.0
2018-Sep-22 05:00N 39°33' E 002°38'0 0.0
2018-Sep-22 04:30N 39°33' E 002°38'0 0.0
2018-Sep-22 04:03N 39°33' E 002°38'0 0.0
2018-Sep-22 04:00N 39°33' E 002°38'0 0.0
2018-Sep-22 03:30N 39°33' E 002°38'1 2.8
2018-Sep-22 03:03N 39°32' E 002°39'0 8.3
2018-Sep-22 03:00N 39°32' E 002°39'713.6
2018-Sep-22 02:30N 39°26' E 002°34'614.1
2018-Sep-22 02:03N 39°26' E 002°26'115.2
2018-Sep-22 02:00N 39°26' E 002°25'9114.3
2018-Sep-21 19:40N 40°57' E 002°10'315.1
2018-Sep-21 19:29N 40°59' E 002°11'715.4
2018-Sep-21 19:03N 41°06' E 002°11'115.6
2018-Sep-21 18:59N 41°07' E 002°11'715.1
2018-Sep-21 18:30N 41°14' E 002°11'612.9
2018-Sep-21 18:03N 41°20' E 002°10'0 7.1
2018-Sep-21 18:00N 41°20' E 002°10'1 2.3
2018-Sep-21 17:28N 41°22' E 002°11'0 0.0
2018-Sep-21 17:01N 41°22' E 002°11'0 0.0
2018-Sep-21 16:58N 41°22' E 002°11'0 0.0
2018-Sep-21 16:28N 41°22' E 002°11'0 0.0
2018-Sep-21 16:01N 41°22' E 002°11'0 0.0
2018-Sep-21 15:58N 41°22' E 002°11'0 0.0
2018-Sep-21 15:28N 41°22' E 002°11'0 0.0
2018-Sep-21 15:01N 41°22' E 002°11'0 0.0
2018-Sep-21 14:58N 41°22' E 002°11'0 0.0
2018-Sep-21 14:28N 41°22' E 002°11'0 0.0
2018-Sep-21 13:30N 41°22' E 002°11'0 0.0
2018-Sep-21 13:03N 41°22' E 002°11'0 0.0
2018-Sep-21 13:00N 41°22' E 002°11'0 0.0
2018-Sep-21 12:30N 41°22' E 002°11'0 0.0
2018-Sep-21 12:03N 41°22' E 002°11'0 0.0
2018-Sep-21 12:00N 41°22' E 002°11'0 0.0
2018-Sep-21 11:30N 41°22' E 002°11'0 0.0
2018-Sep-21 11:01N 41°22' E 002°11'0 0.0
2018-Sep-21 10:58N 41°22' E 002°11'0 0.0
2018-Sep-21 10:22N 41°22' E 002°11'0 0.0
2018-Sep-21 10:02N 41°22' E 002°11'0 0.0
2018-Sep-21 09:59N 41°22' E 002°11'0 0.0
2018-Sep-21 09:31N 41°22' E 002°11'0 0.0
2018-Sep-21 09:03N 41°22' E 002°11'0 0.0
2018-Sep-21 09:00N 41°22' E 002°11'0 0.0
2018-Sep-21 08:30N 41°22' E 002°11'0 0.0
2018-Sep-21 08:03N 41°22' E 002°11'0 0.0
2018-Sep-21 08:00N 41°22' E 002°11'0 0.0
2018-Sep-21 07:30N 41°22' E 002°11'0 0.5
2018-Sep-21 07:03N 41°21' E 002°10'0 4.1
2018-Sep-21 07:00N 41°21' E 002°10'4 8.0
2018-Sep-21 06:30N 41°17' E 002°11'712.9
2018-Sep-21 05:57N 41°16' E 002°21'919.1
2018-Sep-21 05:30N 41°19' E 002°31'818.9
2018-Sep-21 05:03N 41°24' E 002°41'119.0
2018-Sep-21 05:00N 41°24' E 002°42'918.8
2018-Sep-21 04:31N 41°28' E 002°53'919.0
2018-Sep-21 04:03N 41°32' E 003°03'119.1
2018-Sep-21 04:00N 41°33' E 003°05'1219.4
2018-Sep-21 03:24N 41°38' E 003°19'719.6
2018-Sep-21 03:03N 41°41' E 003°27'119.6
2018-Sep-21 03:00N 41°41' E 003°28'1019.4
2018-Sep-21 02:30N 41°45' E 003°40'818.9
2018-Sep-21 02:03N 41°49' E 003°50'118.3
2018-Sep-21 02:00N 41°50' E 003°51'918.3
2018-Sep-21 01:30N 41°53' E 004°02'818.4
2018-Sep-21 01:03N 41°57' E 004°12'118.4
2018-Sep-21 01:00N 41°57' E 004°13'1518.4
2018-Sep-21 00:12N 42°04' E 004°31'318.0
2018-Sep-21 00:03N 42°05' E 004°34'417.6
2018-Sep-20 23:51N 42°07' E 004°39'1017.5
2018-Sep-20 23:16N 42°11' E 004°51'3318.2
2018-Sep-20 21:29N 42°26' E 005°30'918.4
2018-Sep-20 21:01N 42°30' E 005°41'118.3
2018-Sep-20 20:57N 42°30' E 005°42'3118.6
2018-Sep-20 19:19N 42°42' E 006°20'518.9
2018-Sep-20 19:02N 42°45' E 006°26'118.7
2018-Sep-20 19:00N 42°45' E 006°27'918.8
2018-Sep-20 18:30N 42°49' E 006°39'818.7
2018-Sep-20 18:03N 42°55' E 006°47'118.8
2018-Sep-20 17:59N 42°56' E 006°48'918.7
2018-Sep-20 17:30N 43°03' E 006°56'818.8
2018-Sep-20 17:03N 43°09' E 007°04'118.9
2018-Sep-20 17:00N 43°10' E 007°04'1019.1
2018-Sep-20 16:30N 43°17' E 007°13'818.2
2018-Sep-20 16:03N 43°24' E 007°18'119.2
2018-Sep-20 16:00N 43°25' E 007°18'1018.9
2018-Sep-20 15:30N 43°35' E 007°18'614.0
2018-Sep-20 15:03N 43°41' E 007°19'0 3.5
2018-Sep-20 15:00N 43°41' E 007°19'0 0.0
2018-Sep-20 14:01N 43°41' E 007°19'0 0.1
2018-Sep-20 13:55N 43°41' E 007°19'0 0.0
2018-Sep-20 13:28N 43°41' E 007°19'0 0.0
2018-Sep-20 13:01N 43°41' E 007°19'0 0.0
2018-Sep-20 12:58N 43°41' E 007°19'0 0.0
2018-Sep-20 12:28N 43°41' E 007°19'0 0.0
2018-Sep-20 12:01N 43°41' E 007°19'0 0.0
2018-Sep-20 11:58N 43°41' E 007°19'0 0.0
2018-Sep-20 11:28N 43°41' E 007°19'0 0.1
2018-Sep-20 11:01N 43°41' E 007°19'0 0.0
2018-Sep-20 10:58N 43°41' E 007°19'0 0.1
2018-Sep-20 10:30N 43°41' E 007°19'0 0.1
2018-Sep-20 10:02N 43°41' E 007°19'0 0.1
2018-Sep-20 09:59N 43°41' E 007°19'0 0.0
2018-Sep-20 09:29N 43°41' E 007°19'0 0.0
2018-Sep-20 09:02N 43°41' E 007°19'0 0.1
2018-Sep-20 08:59N 43°41' E 007°19'0 0.0
2018-Sep-20 08:29N 43°41' E 007°19'0 0.0
2018-Sep-20 08:02N 43°41' E 007°19'0 0.0
2018-Sep-20 07:59N 43°41' E 007°19'0 0.0
2018-Sep-20 07:29N 43°41' E 007°19'0 0.0
2018-Sep-20 07:02N 43°41' E 007°19'0 0.1
2018-Sep-20 06:59N 43°41' E 007°19'0 0.0
2018-Sep-20 06:26N 43°41' E 007°19'0 0.0
2018-Sep-20 06:02N 43°41' E 007°19'0 0.0
2018-Sep-20 05:59N 43°41' E 007°19'0 0.0
2018-Sep-20 05:29N 43°41' E 007°19'0 0.1
2018-Sep-20 05:02N 43°41' E 007°19'0 0.2
2018-Sep-20 04:59N 43°41' E 007°19'2 3.3
2018-Sep-20 04:30N 43°40' E 007°19'511.0
2018-Sep-20 04:03N 43°39' E 007°26'112.8
2018-Sep-20 04:00N 43°39' E 007°26'612.9
2018-Sep-20 03:30N 43°38' E 007°35'612.9
2018-Sep-20 03:04N 43°38' E 007°43'113.2
2018-Sep-20 03:01N 43°38' E 007°44'713.7
2018-Sep-20 02:31N 43°37' E 007°54'613.8
2018-Sep-20 02:04N 43°37' E 008°02'113.5
2018-Sep-20 02:01N 43°37' E 008°03'713.5
2018-Sep-20 01:31N 43°37' E 008°12'613.4
2018-Sep-20 01:04N 43°37' E 008°21'113.4
2018-Sep-20 01:00N 43°37' E 008°22'713.3
2018-Sep-20 00:31N 43°36' E 008°31'613.2
2018-Sep-20 00:03N 43°35' E 008°39'113.2
2018-Sep-20 00:01N 43°35' E 008°40'713.4
2018-Sep-19 23:31N 43°35' E 008°49'613.4
2018-Sep-19 23:04N 43°35' E 008°58'113.3
2018-Sep-19 23:01N 43°35' E 008°58'713.5
2018-Sep-19 22:31N 43°35' E 009°08'613.2
2018-Sep-19 22:04N 43°34' E 009°16'113.2
2018-Sep-19 22:01N 43°34' E 009°17'713.3
2018-Sep-19 21:31N 43°34' E 009°26'613.7
2018-Sep-19 21:04N 43°33' E 009°34'113.7
2018-Sep-19 21:01N 43°33' E 009°35'713.7
2018-Sep-19 20:31N 43°33' E 009°45'613.8
2018-Sep-19 20:04N 43°32' E 009°53'113.7
2018-Sep-19 20:01N 43°32' E 009°54'713.6
2018-Sep-19 19:31N 43°31' E 010°03'613.4
2018-Sep-19 19:04N 43°31' E 010°12'113.1
2018-Sep-19 19:01N 43°31' E 010°13'4 8.2
2018-Sep-19 18:30N 43°33' E 010°18'0 0.3
2018-Sep-19 18:03N 43°33' E 010°18'0 0.0
2018-Sep-19 18:00N 43°33' E 010°18'0 0.0
2018-Sep-19 17:30N 43°33' E 010°18'0 0.0
2018-Sep-19 17:01N 43°33' E 010°18'0 0.0
2018-Sep-19 16:55N 43°33' E 010°18'0 0.0
2018-Sep-19 16:25N 43°33' E 010°18'0 0.0
2018-Sep-19 16:01N 43°33' E 010°18'0 0.0
2018-Sep-19 15:58N 43°33' E 010°18'0 0.0
2018-Sep-19 15:28N 43°33' E 010°18'0 0.0
2018-Sep-19 15:01N 43°33' E 010°18'0 0.0
2018-Sep-19 14:55N 43°33' E 010°18'0 0.0
2018-Sep-19 14:28N 43°33' E 010°18'0 0.0
2018-Sep-19 13:28N 43°33' E 010°18'0 0.0
2018-Sep-19 13:01N 43°33' E 010°18'0 0.0
2018-Sep-19 12:58N 43°33' E 010°18'0 0.0
2018-Sep-19 12:30N 43°33' E 010°18'0 0.0
2018-Sep-19 12:02N 43°33' E 010°18'0 0.0
2018-Sep-19 11:59N 43°33' E 010°18'0 0.0
2018-Sep-19 11:29N 43°33' E 010°18'0 0.0
2018-Sep-19 10:55N 43°33' E 010°18'0 0.0
2018-Sep-19 10:28N 43°33' E 010°18'0 0.0
2018-Sep-19 10:03N 43°33' E 010°18'0 0.0
2018-Sep-19 10:00N 43°33' E 010°18'0 0.0
2018-Sep-19 09:30N 43°33' E 010°18'0 0.0
2018-Sep-19 09:03N 43°33' E 010°18'0 0.0
2018-Sep-19 09:00N 43°33' E 010°18'0 0.0
2018-Sep-19 08:30N 43°33' E 010°18'0 0.0
2018-Sep-19 07:57N 43°33' E 010°18'0 0.0
2018-Sep-19 07:30N 43°33' E 010°18'1 1.5
2018-Sep-19 07:03N 43°33' E 010°17'0 5.7
2018-Sep-19 07:00N 43°32' E 010°17'612.4
2018-Sep-19 06:30N 43°27' E 010°13'918.5
2018-Sep-19 06:03N 43°19' E 010°10'118.5
2018-Sep-19 06:00N 43°18' E 010°10'918.6
2018-Sep-19 05:30N 43°09' E 010°07'818.5
2018-Sep-19 05:03N 43°01' E 010°05'118.4
2018-Sep-19 05:00N 43°00' E 010°05'20918.4
2018-Sep-18 17:38N 40°41' E 013°35'218.9
2018-Sep-18 17:30N 40°41' E 013°38'919.1
2018-Sep-18 17:03N 40°39' E 013°49'119.2
2018-Sep-18 17:01N 40°39' E 013°51'1019.3
2018-Sep-18 16:30N 40°39' E 014°03'919.1
2018-Sep-18 16:04N 40°44' E 014°12'119.0
2018-Sep-18 16:01N 40°45' E 014°13'611.2
2018-Sep-18 15:31N 40°50' E 014°16'0 0.0
2018-Sep-18 15:02N 40°50' E 014°16'0 0.0
2018-Sep-18 14:59N 40°50' E 014°16'0 0.0
2018-Sep-18 14:26N 40°50' E 014°16'0 0.0
2018-Sep-18 13:59N 40°50' E 014°16'0 0.0
2018-Sep-18 13:23N 40°50' E 014°16'0 0.0
2018-Sep-18 12:59N 40°50' E 014°16'0 0.0
2018-Sep-18 12:29N 40°50' E 014°16'0 0.0
2018-Sep-18 12:02N 40°50' E 014°16'0 0.0
2018-Sep-18 11:59N 40°50' E 014°16'0 0.0
2018-Sep-18 11:29N 40°50' E 014°16'0 0.0
2018-Sep-18 11:02N 40°50' E 014°16'0 0.0
2018-Sep-18 10:56N 40°50' E 014°16'0 0.0
2018-Sep-18 10:28N 40°50' E 014°16'0 0.0
2018-Sep-18 10:01N 40°50' E 014°16'0 0.0
2018-Sep-18 09:58N 40°50' E 014°16'0 0.0
2018-Sep-18 09:29N 40°50' E 014°16'0 0.0
2018-Sep-18 09:03N 40°50' E 014°16'0 0.0
2018-Sep-18 09:00N 40°50' E 014°16'0 0.0
2018-Sep-18 08:29N 40°50' E 014°16'0 0.0
2018-Sep-18 08:03N 40°50' E 014°16'0 0.0
2018-Sep-18 07:59N 40°50' E 014°16'0 0.0
2018-Sep-18 07:29N 40°50' E 014°16'0 0.0
2018-Sep-18 07:02N 40°50' E 014°16'0 0.0
2018-Sep-18 06:59N 40°50' E 014°16'0 0.0
2018-Sep-18 06:29N 40°50' E 014°16'0 0.0
2018-Sep-18 06:02N 40°50' E 014°16'0 0.0
2018-Sep-18 05:56N 40°50' E 014°16'0 0.0
2018-Sep-18 05:30N 40°50' E 014°16'0 0.0
2018-Sep-18 05:01N 40°50' E 014°16'0 0.0
2018-Sep-18 04:58N 40°50' E 014°16'0 0.0
2018-Sep-18 04:30N 40°50' E 014°16'1 2.2
2018-Sep-18 04:04N 40°50' E 014°17'0 6.7
2018-Sep-18 04:01N 40°49' E 014°17'612.2
2018-Sep-18 03:30N 40°44' E 014°14'614.0
2018-Sep-18 03:03N 40°38' E 014°10'114.1
2018-Sep-18 03:01N 40°38' E 014°09'714.0
2018-Sep-18 02:30N 40°31' E 014°06'614.4
2018-Sep-18 02:03N 40°25' E 014°05'114.7
2018-Sep-18 02:00N 40°24' E 014°05'814.4
2018-Sep-18 01:28N 40°16' E 014°02'614.4
2018-Sep-18 01:02N 40°11' E 013°60'214.4
2018-Sep-18 00:53N 40°08' E 013°59'9714.2
2018-Sep-17 18:04N 38°34' E 013°33'014.2
2018-Sep-17 18:03N 38°33' E 013°32'114.5
2018-Sep-17 18:00N 38°33' E 013°32'714.2
2018-Sep-17 17:30N 38°26' E 013°31'614.3
2018-Sep-17 17:04N 38°20' E 013°29'114.6
2018-Sep-17 17:01N 38°19' E 013°29'714.7
2018-Sep-17 16:30N 38°12' E 013°27'612.2
2018-Sep-17 16:03N 38°07' E 013°23'0 6.5
2018-Sep-17 16:01N 38°07' E 013°23'1 1.1
2018-Sep-17 15:28N 38°08' E 013°22'0 0.0
2018-Sep-17 15:01N 38°08' E 013°22'0 0.0
2018-Sep-17 14:58N 38°08' E 013°22'0 0.0
2018-Sep-17 14:28N 38°08' E 013°22'0 0.0
2018-Sep-17 13:58N 38°08' E 013°22'0 0.0
2018-Sep-17 13:25N 38°08' E 013°22'0 0.0
2018-Sep-17 12:55N 38°08' E 013°22'0 0.0
2018-Sep-17 12:27N 38°08' E 013°22'0 0.0
2018-Sep-17 11:58N 38°08' E 013°22'0 0.0
2018-Sep-17 11:28N 38°08' E 013°22'0 0.0
2018-Sep-17 10:54N 38°08' E 013°22'0 0.0
2018-Sep-17 10:30N 38°08' E 013°22'0 0.0
2018-Sep-17 09:59N 38°08' E 013°22'0 0.0
2018-Sep-17 09:29N 38°08' E 013°22'0 0.0
2018-Sep-17 08:59N 38°08' E 013°22'0 0.0
2018-Sep-17 08:29N 38°08' E 013°22'0 0.0
2018-Sep-17 08:01N 38°08' E 013°22'0 0.0
2018-Sep-17 07:58N 38°08' E 013°22'0 0.0
2018-Sep-17 07:22N 38°08' E 013°22'0 0.0
2018-Sep-17 07:01N 38°08' E 013°22'0 0.0
2018-Sep-17 06:58N 38°08' E 013°22'0 0.0
2018-Sep-17 06:31N 38°08' E 013°22'0 0.0
2018-Sep-17 06:04N 38°08' E 013°22'0 0.5
2018-Sep-17 06:00N 38°08' E 013°22'1 2.9
2018-Sep-17 05:31N 38°08' E 013°24'1 2.9
2018-Sep-17 05:04N 38°09' E 013°24'0 4.1
2018-Sep-17 05:01N 38°09' E 013°24'4 8.6
2018-Sep-17 04:31N 38°14' E 013°23'613.9
2018-Sep-17 04:04N 38°19' E 013°19'115.0
2018-Sep-17 04:01N 38°19' E 013°18'815.0
2018-Sep-17 03:31N 38°18' E 013°08'715.0
2018-Sep-17 03:02N 38°18' E 012°59'015.5
2018-Sep-17 03:00N 38°18' E 012°59'714.9
2018-Sep-17 02:30N 38°17' E 012°49'46016.8
2018-Sep-15 23:08N 39°02' E 003°03'117.9
2018-Sep-15 23:03N 39°02' E 003°01'117.9
2018-Sep-15 23:00N 39°02' E 002°60'917.4
2018-Sep-15 22:27N 39°07' E 002°49'718.3
2018-Sep-15 22:03N 39°13' E 002°44'118.3
2018-Sep-15 22:00N 39°14' E 002°44'917.8
2018-Sep-15 21:30N 39°22' E 002°39'818.5
2018-Sep-15 21:03N 39°30' E 002°40'117.4
2018-Sep-15 21:00N 39°31' E 002°39'2 4.9
2018-Sep-15 20:30N 39°33' E 002°38'0 0.0
2018-Sep-15 20:02N 39°33' E 002°38'0 0.0
2018-Sep-15 19:59N 39°33' E 002°38'0 0.0
2018-Sep-15 19:29N 39°33' E 002°38'0 0.0
2018-Sep-15 19:02N 39°33' E 002°38'0 0.0
2018-Sep-15 18:59N 39°33' E 002°38'0 0.0
2018-Sep-15 18:29N 39°33' E 002°38'0 0.0
2018-Sep-15 18:02N 39°33' E 002°38'0 0.0
2018-Sep-15 17:59N 39°33' E 002°38'0 0.0
2018-Sep-15 17:30N 39°33' E 002°38'0 0.0
2018-Sep-15 17:00N 39°33' E 002°38'0 0.0
2018-Sep-15 16:30N 39°33' E 002°38'0 0.0
2018-Sep-15 16:03N 39°33' E 002°38'0 0.0
2018-Sep-15 16:00N 39°33' E 002°38'0 0.0
2018-Sep-15 15:30N 39°33' E 002°38'0 0.0
2018-Sep-15 15:00N 39°33' E 002°38'0 0.0
2018-Sep-15 13:59N 39°33' E 002°38'0 0.0
2018-Sep-15 13:29N 39°33' E 002°38'0 0.0
2018-Sep-15 13:02N 39°33' E 002°38'0 0.0
2018-Sep-15 12:59N 39°33' E 002°38'0 0.0
2018-Sep-15 12:29N 39°33' E 002°38'0 0.0
2018-Sep-15 12:02N 39°33' E 002°38'0 0.0
2018-Sep-15 11:59N 39°33' E 002°38'0 0.0
2018-Sep-15 11:29N 39°33' E 002°38'0 0.0
2018-Sep-15 11:02N 39°33' E 002°38'0 0.0
2018-Sep-15 10:59N 39°33' E 002°38'0 0.0
2018-Sep-15 10:29N 39°33' E 002°38'0 0.0
2018-Sep-15 10:02N 39°33' E 002°38'0 0.0
2018-Sep-15 09:59N 39°33' E 002°38'0 0.0
2018-Sep-15 09:29N 39°33' E 002°38'0 0.0
2018-Sep-15 09:01N 39°33' E 002°38'0 0.0
2018-Sep-15 08:58N 39°33' E 002°38'0 0.0
2018-Sep-15 08:22N 39°33' E 002°38'0 0.0
2018-Sep-15 08:03N 39°33' E 002°38'0 0.0
2018-Sep-15 07:54N 39°33' E 002°38'0 0.0
2018-Sep-15 07:30N 39°33' E 002°38'0 0.0
2018-Sep-15 07:03N 39°33' E 002°38'0 0.0
2018-Sep-15 07:00N 39°33' E 002°38'0 0.0
2018-Sep-15 06:29N 39°33' E 002°38'0 0.0
2018-Sep-15 06:02N 39°33' E 002°38'0 0.0
2018-Sep-15 05:56N 39°33' E 002°38'0 0.0
2018-Sep-15 05:29N 39°33' E 002°38'0 0.0
2018-Sep-15 05:02N 39°33' E 002°38'0 0.0
2018-Sep-15 04:59N 39°33' E 002°38'0 0.0
2018-Sep-15 04:29N 39°33' E 002°38'0 0.0
2018-Sep-15 04:02N 39°33' E 002°38'0 0.0
2018-Sep-15 03:59N 39°33' E 002°38'0 0.0
2018-Sep-15 03:29N 39°33' E 002°38'1 2.2
2018-Sep-15 03:03N 39°33' E 002°39'0 7.3
2018-Sep-15 03:00N 39°33' E 002°39'511.0
2018-Sep-15 02:30N 39°28' E 002°35'511.0
2018-Sep-15 02:03N 39°25' E 002°30'112.8
2018-Sep-15 02:00N 39°26' E 002°29'612.8
2018-Sep-15 01:30N 39°29' E 002°22'  
Track history (hours):
 
Tides and Currents Weather Stations Pressure Air Temp Water Temp Dewpoint Dewpoint Depression Visibility Wind Speed Wind Dir Waves Ship Positions

Celebrity Galaxy

Last reported at 2018-Sep-24 16:49 UTC. Time now 2018-Sep-24 21:22 UTC.
Position N 41°36' E 008°43'.

Length 262 m; draft 8.4 m.

Type: Passenger vessel. MMSI: 249051000.

Date/timePositionNaut miles runAvg speedWind from/ knotsBaromVisibWave heightAir tempDewpointWater temp
2018-Sep-24 16:49N 41°36' E 008°43'270 7.3
2018-Sep-23 03:47N 39°21' E 003°35'3 8.8
2018-Sep-23 03:30N 39°20' E 003°32'4 8.9
2018-Sep-23 03:03N 39°18' E 003°28'0 9.0
2018-Sep-23 03:00N 39°18' E 003°27'5 9.0
2018-Sep-23 02:30N 39°15' E 003°22'7 9.1
2018-Sep-23 01:46N 39°12' E 003°15'2 9.0
2018-Sep-23 01:30N 39°11' E 003°12'4 9.1
2018-Sep-23 01:04N 39°09' E 003°08'1 9.1
2018-Sep-23 01:00N 39°08' E 003°07'4 9.0
2018-Sep-23 00:30N 39°06' E 003°02'4 8.6
2018-Sep-23 00:04N 39°05' E 002°57'0 8.7
2018-Sep-23 00:01N 39°05' E 002°57'4 8.6
2018-Sep-22 23:30N 39°06' E 002°51'4 9.3
2018-Sep-22 23:01N 39°10' E 002°48'0 9.5
2018-Sep-22 23:00N 39°10' E 002°48'5 9.4
2018-Sep-22 22:30N 39°14' E 002°44'4 9.5
2018-Sep-22 22:03N 39°17' E 002°41'1 9.3
2018-Sep-22 22:00N 39°18' E 002°41'5 9.1
2018-Sep-22 21:30N 39°22' E 002°39'4 9.1
2018-Sep-22 21:03N 39°26' E 002°39'0 8.9
2018-Sep-22 21:00N 39°26' E 002°39'5 9.2
2018-Sep-22 20:30N 39°31' E 002°39'2 4.9
2018-Sep-22 20:04N 39°33' E 002°38'0 1.8
2018-Sep-22 20:00N 39°33' E 002°38'0 0.3
2018-Sep-22 19:30N 39°33' E 002°38'0 0.0
2018-Sep-22 19:03N 39°33' E 002°38'0 0.0
2018-Sep-22 19:00N 39°33' E 002°38'0 0.0
2018-Sep-22 18:27N 39°33' E 002°38'0 0.0
2018-Sep-22 18:03N 39°33' E 002°38'0 0.0
2018-Sep-22 18:00N 39°33' E 002°38'0 0.0
2018-Sep-22 17:30N 39°33' E 002°38'0 0.0
2018-Sep-22 17:03N 39°33' E 002°38'0 0.0
2018-Sep-22 17:00N 39°33' E 002°38'0 0.0
2018-Sep-22 16:30N 39°33' E 002°38'0 0.0
2018-Sep-22 16:03N 39°33' E 002°38'0 0.0
2018-Sep-22 16:00N 39°33' E 002°38'0 0.0
2018-Sep-22 15:30N 39°33' E 002°38'0 0.0
2018-Sep-22 15:00N 39°33' E 002°38'0 0.0
2018-Sep-22 14:30N 39°33' E 002°38'0 0.0
2018-Sep-22 14:00N 39°33' E 002°38'0 0.0
2018-Sep-22 13:30N 39°33' E 002°38'0 0.0
2018-Sep-22 13:03N 39°33' E 002°38'0 0.0
2018-Sep-22 13:00N 39°33' E 002°38'0 0.0
2018-Sep-22 12:30N 39°33' E 002°38'0 0.0
2018-Sep-22 12:03N 39°33' E 002°38'0 0.0
2018-Sep-22 12:00N 39°33' E 002°38'0 0.0
2018-Sep-22 11:30N 39°33' E 002°38'0 0.0
2018-Sep-22 11:03N 39°33' E 002°38'0 0.0
2018-Sep-22 11:00N 39°33' E 002°38'0 0.0
2018-Sep-22 10:27N 39°33' E 002°38'0 0.0
2018-Sep-22 10:03N 39°33' E 002°38'0 0.0
2018-Sep-22 10:00N 39°33' E 002°38'0 0.0
2018-Sep-22 09:27N 39°33' E 002°38'0 0.0
2018-Sep-22 09:00N 39°33' E 002°38'0 0.0
2018-Sep-22 08:27N 39°33' E 002°38'0 0.0
2018-Sep-22 08:03N 39°33' E 002°38'0 0.0
2018-Sep-22 08:00N 39°33' E 002°38'0 0.0
2018-Sep-22 07:30N 39°33' E 002°38'0 0.0
2018-Sep-22 07:03N 39°33' E 002°38'0 0.0
2018-Sep-22 06:57N 39°33' E 002°38'0 0.0
2018-Sep-22 06:30N 39°33' E 002°38'0 0.0
2018-Sep-22 06:03N 39°33' E 002°38'0 0.0
2018-Sep-22 06:00N 39°33' E 002°38'0 0.0
2018-Sep-22 05:30N 39°33' E 002°38'0 0.0
2018-Sep-22 05:03N 39°33' E 002°38'0 0.0
2018-Sep-22 05:00N 39°33' E 002°38'0 0.0
2018-Sep-22 04:30N 39°33' E 002°38'0 0.0
2018-Sep-22 04:03N 39°33' E 002°38'0 0.0
2018-Sep-22 04:00N 39°33' E 002°38'0 0.0
2018-Sep-22 03:30N 39°33' E 002°38'1 2.8
2018-Sep-22 03:03N 39°32' E 002°39'0 8.3
2018-Sep-22 03:00N 39°32' E 002°39'713.6
2018-Sep-22 02:30N 39°26' E 002°34'614.1
2018-Sep-22 02:03N 39°26' E 002°26'115.2
2018-Sep-22 02:00N 39°26' E 002°25'9114.3
2018-Sep-21 19:40N 40°57' E 002°10'315.1
2018-Sep-21 19:29N 40°59' E 002°11'715.4
2018-Sep-21 19:03N 41°06' E 002°11'115.6
2018-Sep-21 18:59N 41°07' E 002°11'715.1
2018-Sep-21 18:30N 41°14' E 002°11'612.9
2018-Sep-21 18:03N 41°20' E 002°10'0 7.1
2018-Sep-21 18:00N 41°20' E 002°10'1 2.3
2018-Sep-21 17:28N 41°22' E 002°11'0 0.0
2018-Sep-21 17:01N 41°22' E 002°11'0 0.0
2018-Sep-21 16:58N 41°22' E 002°11'0 0.0
2018-Sep-21 16:28N 41°22' E 002°11'0 0.0
2018-Sep-21 16:01N 41°22' E 002°11'0 0.0
2018-Sep-21 15:58N 41°22' E 002°11'0 0.0
2018-Sep-21 15:28N 41°22' E 002°11'0 0.0
2018-Sep-21 15:01N 41°22' E 002°11'0 0.0
2018-Sep-21 14:58N 41°22' E 002°11'0 0.0
2018-Sep-21 14:28N 41°22' E 002°11'0 0.0
2018-Sep-21 13:30N 41°22' E 002°11'0 0.0
2018-Sep-21 13:03N 41°22' E 002°11'0 0.0
2018-Sep-21 13:00N 41°22' E 002°11'0 0.0
2018-Sep-21 12:30N 41°22' E 002°11'0 0.0
2018-Sep-21 12:03N 41°22' E 002°11'0 0.0
2018-Sep-21 12:00N 41°22' E 002°11'0 0.0
2018-Sep-21 11:30N 41°22' E 002°11'0 0.0
2018-Sep-21 11:01N 41°22' E 002°11'0 0.0
2018-Sep-21 10:58N 41°22' E 002°11'0 0.0
2018-Sep-21 10:22N 41°22' E 002°11'0 0.0
2018-Sep-21 10:02N 41°22' E 002°11'0 0.0
2018-Sep-21 09:59N 41°22' E 002°11'0 0.0
2018-Sep-21 09:31N 41°22' E 002°11'0 0.0
2018-Sep-21 09:03N 41°22' E 002°11'0 0.0
2018-Sep-21 09:00N 41°22' E 002°11'0 0.0
2018-Sep-21 08:30N 41°22' E 002°11'0 0.0
2018-Sep-21 08:03N 41°22' E 002°11'0 0.0
2018-Sep-21 08:00N 41°22' E 002°11'0 0.0
2018-Sep-21 07:30N 41°22' E 002°11'0 0.5
2018-Sep-21 07:03N 41°21' E 002°10'0 4.1
2018-Sep-21 07:00N 41°21' E 002°10'4 8.0
2018-Sep-21 06:30N 41°17' E 002°11'712.9
2018-Sep-21 05:57N 41°16' E 002°21'919.1
2018-Sep-21 05:30N 41°19' E 002°31'818.9
2018-Sep-21 05:03N 41°24' E 002°41'119.0
2018-Sep-21 05:00N 41°24' E 002°42'918.8
2018-Sep-21 04:31N 41°28' E 002°53'919.0
2018-Sep-21 04:03N 41°32' E 003°03'119.1
2018-Sep-21 04:00N 41°33' E 003°05'1219.4
2018-Sep-21 03:24N 41°38' E 003°19'719.6
2018-Sep-21 03:03N 41°41' E 003°27'119.6
2018-Sep-21 03:00N 41°41' E 003°28'1019.4
2018-Sep-21 02:30N 41°45' E 003°40'818.9
2018-Sep-21 02:03N 41°49' E 003°50'118.3
2018-Sep-21 02:00N 41°50' E 003°51'918.3
2018-Sep-21 01:30N 41°53' E 004°02'818.4
2018-Sep-21 01:03N 41°57' E 004°12'118.4
2018-Sep-21 01:00N 41°57' E 004°13'1518.4
2018-Sep-21 00:12N 42°04' E 004°31'318.0
2018-Sep-21 00:03N 42°05' E 004°34'417.6
2018-Sep-20 23:51N 42°07' E 004°39'1017.5
2018-Sep-20 23:16N 42°11' E 004°51'3318.2
2018-Sep-20 21:29N 42°26' E 005°30'918.4
2018-Sep-20 21:01N 42°30' E 005°41'118.3
2018-Sep-20 20:57N 42°30' E 005°42'3118.6
2018-Sep-20 19:19N 42°42' E 006°20'518.9
2018-Sep-20 19:02N 42°45' E 006°26'118.7
2018-Sep-20 19:00N 42°45' E 006°27'918.8
2018-Sep-20 18:30N 42°49' E 006°39'818.7
2018-Sep-20 18:03N 42°55' E 006°47'118.8
2018-Sep-20 17:59N 42°56' E 006°48'918.7
2018-Sep-20 17:30N 43°03' E 006°56'818.8
2018-Sep-20 17:03N 43°09' E 007°04'118.9
2018-Sep-20 17:00N 43°10' E 007°04'1019.1
2018-Sep-20 16:30N 43°17' E 007°13'818.2
2018-Sep-20 16:03N 43°24' E 007°18'119.2
2018-Sep-20 16:00N 43°25' E 007°18'1018.9
2018-Sep-20 15:30N 43°35' E 007°18'614.0
2018-Sep-20 15:03N 43°41' E 007°19'0 3.5
2018-Sep-20 15:00N 43°41' E 007°19'0 0.0
2018-Sep-20 14:01N 43°41' E 007°19'0 0.1
2018-Sep-20 13:55N 43°41' E 007°19'0 0.0
2018-Sep-20 13:28N 43°41' E 007°19'0 0.0
2018-Sep-20 13:01N 43°41' E 007°19'0 0.0
2018-Sep-20 12:58N 43°41' E 007°19'0 0.0
2018-Sep-20 12:28N 43°41' E 007°19'0 0.0
2018-Sep-20 12:01N 43°41' E 007°19'0 0.0
2018-Sep-20 11:58N 43°41' E 007°19'0 0.0
2018-Sep-20 11:28N 43°41' E 007°19'0 0.1
2018-Sep-20 11:01N 43°41' E 007°19'0 0.0
2018-Sep-20 10:58N 43°41' E 007°19'0 0.1
2018-Sep-20 10:30N 43°41' E 007°19'0 0.1
2018-Sep-20 10:02N 43°41' E 007°19'0 0.1
2018-Sep-20 09:59N 43°41' E 007°19'0 0.0
2018-Sep-20 09:29N 43°41' E 007°19'0 0.0
2018-Sep-20 09:02N 43°41' E 007°19'0 0.1
2018-Sep-20 08:59N 43°41' E 007°19'0 0.0
2018-Sep-20 08:29N 43°41' E 007°19'0 0.0
2018-Sep-20 08:02N 43°41' E 007°19'0 0.0
2018-Sep-20 07:59N 43°41' E 007°19'0 0.0
2018-Sep-20 07:29N 43°41' E 007°19'0 0.0
2018-Sep-20 07:02N 43°41' E 007°19'0 0.1
2018-Sep-20 06:59N 43°41' E 007°19'0 0.0
2018-Sep-20 06:26N 43°41' E 007°19'0 0.0
2018-Sep-20 06:02N 43°41' E 007°19'0 0.0
2018-Sep-20 05:59N 43°41' E 007°19'0 0.0
2018-Sep-20 05:29N 43°41' E 007°19'0 0.1
2018-Sep-20 05:02N 43°41' E 007°19'0 0.2
2018-Sep-20 04:59N 43°41' E 007°19'2 3.3
2018-Sep-20 04:30N 43°40' E 007°19'511.0
2018-Sep-20 04:03N 43°39' E 007°26'112.8
2018-Sep-20 04:00N 43°39' E 007°26'612.9
2018-Sep-20 03:30N 43°38' E 007°35'612.9
2018-Sep-20 03:04N 43°38' E 007°43'113.2
2018-Sep-20 03:01N 43°38' E 007°44'713.7
2018-Sep-20 02:31N 43°37' E 007°54'613.8
2018-Sep-20 02:04N 43°37' E 008°02'113.5
2018-Sep-20 02:01N 43°37' E 008°03'713.5
2018-Sep-20 01:31N 43°37' E 008°12'613.4
2018-Sep-20 01:04N 43°37' E 008°21'113.4
2018-Sep-20 01:00N 43°37' E 008°22'713.3
2018-Sep-20 00:31N 43°36' E 008°31'613.2
2018-Sep-20 00:03N 43°35' E 008°39'113.2
2018-Sep-20 00:01N 43°35' E 008°40'713.4
2018-Sep-19 23:31N 43°35' E 008°49'613.4
2018-Sep-19 23:04N 43°35' E 008°58'113.3
2018-Sep-19 23:01N 43°35' E 008°58'713.5
2018-Sep-19 22:31N 43°35' E 009°08'613.2
2018-Sep-19 22:04N 43°34' E 009°16'113.2
2018-Sep-19 22:01N 43°34' E 009°17'713.3
2018-Sep-19 21:31N 43°34' E 009°26'613.7
2018-Sep-19 21:04N 43°33' E 009°34'113.7
2018-Sep-19 21:01N 43°33' E 009°35'713.7
2018-Sep-19 20:31N 43°33' E 009°45'613.8
2018-Sep-19 20:04N 43°32' E 009°53'113.7
2018-Sep-19 20:01N 43°32' E 009°54'713.6
2018-Sep-19 19:31N 43°31' E 010°03'613.4
2018-Sep-19 19:04N 43°31' E 010°12'113.1
2018-Sep-19 19:01N 43°31' E 010°13'4 8.2
2018-Sep-19 18:30N 43°33' E 010°18'0 0.3
2018-Sep-19 18:03N 43°33' E 010°18'0 0.0
2018-Sep-19 18:00N 43°33' E 010°18'0 0.0
2018-Sep-19 17:30N 43°33' E 010°18'0 0.0
2018-Sep-19 17:01N 43°33' E 010°18'0 0.0
2018-Sep-19 16:55N 43°33' E 010°18'0 0.0
2018-Sep-19 16:25N 43°33' E 010°18'0 0.0
2018-Sep-19 16:01N 43°33' E 010°18'0 0.0
2018-Sep-19 15:58N 43°33' E 010°18'0 0.0
2018-Sep-19 15:28N 43°33' E 010°18'0 0.0
2018-Sep-19 15:01N 43°33' E 010°18'0 0.0
2018-Sep-19 14:55N 43°33' E 010°18'0 0.0
2018-Sep-19 14:28N 43°33' E 010°18'0 0.0
2018-Sep-19 13:28N 43°33' E 010°18'0 0.0
2018-Sep-19 13:01N 43°33' E 010°18'0 0.0
2018-Sep-19 12:58N 43°33' E 010°18'0 0.0
2018-Sep-19 12:30N 43°33' E 010°18'0 0.0
2018-Sep-19 12:02N 43°33' E 010°18'0 0.0
2018-Sep-19 11:59N 43°33' E 010°18'0 0.0
2018-Sep-19 11:29N 43°33' E 010°18'0 0.0
2018-Sep-19 10:55N 43°33' E 010°18'0 0.0
2018-Sep-19 10:28N 43°33' E 010°18'0 0.0
2018-Sep-19 10:03N 43°33' E 010°18'0 0.0
2018-Sep-19 10:00N 43°33' E 010°18'0 0.0
2018-Sep-19 09:30N 43°33' E 010°18'0 0.0
2018-Sep-19 09:03N 43°33' E 010°18'0 0.0
2018-Sep-19 09:00N 43°33' E 010°18'0 0.0
2018-Sep-19 08:30N 43°33' E 010°18'0 0.0
2018-Sep-19 07:57N 43°33' E 010°18'0 0.0
2018-Sep-19 07:30N 43°33' E 010°18'1 1.5
2018-Sep-19 07:03N 43°33' E 010°17'0 5.7
2018-Sep-19 07:00N 43°32' E 010°17'612.4
2018-Sep-19 06:30N 43°27' E 010°13'918.5
2018-Sep-19 06:03N 43°19' E 010°10'118.5
2018-Sep-19 06:00N 43°18' E 010°10'918.6
2018-Sep-19 05:30N 43°09' E 010°07'818.5
2018-Sep-19 05:03N 43°01' E 010°05'118.4
2018-Sep-19 05:00N 43°00' E 010°05'20918.4
2018-Sep-18 17:38N 40°41' E 013°35'218.9
2018-Sep-18 17:30N 40°41' E 013°38'919.1
2018-Sep-18 17:03N 40°39' E 013°49'119.2
2018-Sep-18 17:01N 40°39' E 013°51'1019.3
2018-Sep-18 16:30N 40°39' E 014°03'919.1
2018-Sep-18 16:04N 40°44' E 014°12'119.0
2018-Sep-18 16:01N 40°45' E 014°13'611.2
2018-Sep-18 15:31N 40°50' E 014°16'0 0.0
2018-Sep-18 15:02N 40°50' E 014°16'0 0.0
2018-Sep-18 14:59N 40°50' E 014°16'0 0.0
2018-Sep-18 14:26N 40°50' E 014°16'0 0.0
2018-Sep-18 13:59N 40°50' E 014°16'0 0.0
2018-Sep-18 13:23N 40°50' E 014°16'0 0.0
2018-Sep-18 12:59N 40°50' E 014°16'0 0.0
2018-Sep-18 12:29N 40°50' E 014°16'0 0.0
2018-Sep-18 12:02N 40°50' E 014°16'0 0.0
2018-Sep-18 11:59N 40°50' E 014°16'0 0.0
2018-Sep-18 11:29N 40°50' E 014°16'0 0.0
2018-Sep-18 11:02N 40°50' E 014°16'0 0.0
2018-Sep-18 10:56N 40°50' E 014°16'0 0.0
2018-Sep-18 10:28N 40°50' E 014°16'0 0.0
2018-Sep-18 10:01N 40°50' E 014°16'0 0.0
2018-Sep-18 09:58N 40°50' E 014°16'0 0.0
2018-Sep-18 09:29N 40°50' E 014°16'0 0.0
2018-Sep-18 09:03N 40°50' E 014°16'0 0.0
2018-Sep-18 09:00N 40°50' E 014°16'0 0.0
2018-Sep-18 08:29N 40°50' E 014°16'0 0.0
2018-Sep-18 08:03N 40°50' E 014°16'0 0.0
2018-Sep-18 07:59N 40°50' E 014°16'0 0.0
2018-Sep-18 07:29N 40°50' E 014°16'0 0.0
2018-Sep-18 07:02N 40°50' E 014°16'0 0.0
2018-Sep-18 06:59N 40°50' E 014°16'0 0.0
2018-Sep-18 06:29N 40°50' E 014°16'0 0.0
2018-Sep-18 06:02N 40°50' E 014°16'0 0.0
2018-Sep-18 05:56N 40°50' E 014°16'0 0.0
2018-Sep-18 05:30N 40°50' E 014°16'0 0.0
2018-Sep-18 05:01N 40°50' E 014°16'0 0.0
2018-Sep-18 04:58N 40°50' E 014°16'0 0.0
2018-Sep-18 04:30N 40°50' E 014°16'1 2.2
2018-Sep-18 04:04N 40°50' E 014°17'0 6.7
2018-Sep-18 04:01N 40°49' E 014°17'612.2
2018-Sep-18 03:30N 40°44' E 014°14'614.0
2018-Sep-18 03:03N 40°38' E 014°10'114.1
2018-Sep-18 03:01N 40°38' E 014°09'714.0
2018-Sep-18 02:30N 40°31' E 014°06'614.4
2018-Sep-18 02:03N 40°25' E 014°05'114.7
2018-Sep-18 02:00N 40°24' E 014°05'814.4
2018-Sep-18 01:28N 40°16' E 014°02'614.4
2018-Sep-18 01:02N 40°11' E 013°60'214.4
2018-Sep-18 00:53N 40°08' E 013°59'9714.2
2018-Sep-17 18:04N 38°34' E 013°33'014.2
2018-Sep-17 18:03N 38°33' E 013°32'114.5
2018-Sep-17 18:00N 38°33' E 013°32'714.2
2018-Sep-17 17:30N 38°26' E 013°31'614.3
2018-Sep-17 17:04N 38°20' E 013°29'114.6
2018-Sep-17 17:01N 38°19' E 013°29'714.7
2018-Sep-17 16:30N 38°12' E 013°27'612.2
2018-Sep-17 16:03N 38°07' E 013°23'0 6.5
2018-Sep-17 16:01N 38°07' E 013°23'1 1.1
2018-Sep-17 15:28N 38°08' E 013°22'0 0.0
2018-Sep-17 15:01N 38°08' E 013°22'0 0.0
2018-Sep-17 14:58N 38°08' E 013°22'0 0.0
2018-Sep-17 14:28N 38°08' E 013°22'0 0.0
2018-Sep-17 13:58N 38°08' E 013°22'0 0.0
2018-Sep-17 13:25N 38°08' E 013°22'0 0.0
2018-Sep-17 12:55N 38°08' E 013°22'0 0.0
2018-Sep-17 12:27N 38°08' E 013°22'0 0.0
2018-Sep-17 11:58N 38°08' E 013°22'0 0.0
2018-Sep-17 11:28N 38°08' E 013°22'0 0.0
2018-Sep-17 10:54N 38°08' E 013°22'0 0.0
2018-Sep-17 10:30N 38°08' E 013°22'0 0.0
2018-Sep-17 09:59N 38°08' E 013°22'0 0.0
2018-Sep-17 09:29N 38°08' E 013°22'0 0.0
2018-Sep-17 08:59N 38°08' E 013°22'0 0.0
2018-Sep-17 08:29N 38°08' E 013°22'0 0.0
2018-Sep-17 08:01N 38°08' E 013°22'0 0.0
2018-Sep-17 07:58N 38°08' E 013°22'0 0.0
2018-Sep-17 07:22N 38°08' E 013°22'0 0.0
2018-Sep-17 07:01N 38°08' E 013°22'0 0.0
2018-Sep-17 06:58N 38°08' E 013°22'0 0.0
2018-Sep-17 06:31N 38°08' E 013°22'0 0.0
2018-Sep-17 06:04N 38°08' E 013°22'0 0.5
2018-Sep-17 06:00N 38°08' E 013°22'1 2.9
2018-Sep-17 05:31N 38°08' E 013°24'1 2.9
2018-Sep-17 05:04N 38°09' E 013°24'0 4.1
2018-Sep-17 05:01N 38°09' E 013°24'4 8.6
2018-Sep-17 04:31N 38°14' E 013°23'613.9
2018-Sep-17 04:04N 38°19' E 013°19'115.0
2018-Sep-17 04:01N 38°19' E 013°18'815.0
2018-Sep-17 03:31N 38°18' E 013°08'715.0
2018-Sep-17 03:02N 38°18' E 012°59'015.5
2018-Sep-17 03:00N 38°18' E 012°59'714.9
2018-Sep-17 02:30N 38°17' E 012°49'46016.8
2018-Sep-15 23:08N 39°02' E 003°03'117.9
2018-Sep-15 23:03N 39°02' E 003°01'117.9
2018-Sep-15 23:00N 39°02' E 002°60'917.4
2018-Sep-15 22:27N 39°07' E 002°49'718.3
2018-Sep-15 22:03N 39°13' E 002°44'118.3
2018-Sep-15 22:00N 39°14' E 002°44'917.8
2018-Sep-15 21:30N 39°22' E 002°39'818.5
2018-Sep-15 21:03N 39°30' E 002°40'117.4
2018-Sep-15 21:00N 39°31' E 002°39'2 4.9
2018-Sep-15 20:30N 39°33' E 002°38'0 0.0
2018-Sep-15 20:02N 39°33' E 002°38'0 0.0
2018-Sep-15 19:59N 39°33' E 002°38'0 0.0
2018-Sep-15 19:29N 39°33' E 002°38'0 0.0
2018-Sep-15 19:02N 39°33' E 002°38'0 0.0
2018-Sep-15 18:59N 39°33' E 002°38'0 0.0
2018-Sep-15 18:29N 39°33' E 002°38'0 0.0
2018-Sep-15 18:02N 39°33' E 002°38'0 0.0
2018-Sep-15 17:59N 39°33' E 002°38'0 0.0
2018-Sep-15 17:30N 39°33' E 002°38'0 0.0
2018-Sep-15 17:00N 39°33' E 002°38'0 0.0
2018-Sep-15 16:30N 39°33' E 002°38'0 0.0
2018-Sep-15 16:03N 39°33' E 002°38'0 0.0
2018-Sep-15 16:00N 39°33' E 002°38'0 0.0
2018-Sep-15 15:30N 39°33' E 002°38'0 0.0
2018-Sep-15 15:00N 39°33' E 002°38'0 0.0
2018-Sep-15 13:59N 39°33' E 002°38'0 0.0
2018-Sep-15 13:29N 39°33' E 002°38'0 0.0
2018-Sep-15 13:02N 39°33' E 002°38'0 0.0
2018-Sep-15 12:59N 39°33' E 002°38'0 0.0
2018-Sep-15 12:29N 39°33' E 002°38'0 0.0
2018-Sep-15 12:02N 39°33' E 002°38'0 0.0
2018-Sep-15 11:59N 39°33' E 002°38'0 0.0
2018-Sep-15 11:29N 39°33' E 002°38'0 0.0
2018-Sep-15 11:02N 39°33' E 002°38'0 0.0
2018-Sep-15 10:59N 39°33' E 002°38'0 0.0
2018-Sep-15 10:29N 39°33' E 002°38'0 0.0
2018-Sep-15 10:02N 39°33' E 002°38'0 0.0
2018-Sep-15 09:59N 39°33' E 002°38'0 0.0
2018-Sep-15 09:29N 39°33' E 002°38'0 0.0
2018-Sep-15 09:01N 39°33' E 002°38'0 0.0
2018-Sep-15 08:58N 39°33' E 002°38'0 0.0
2018-Sep-15 08:22N 39°33' E 002°38'0 0.0
2018-Sep-15 08:03N 39°33' E 002°38'0 0.0
2018-Sep-15 07:54N 39°33' E 002°38'0 0.0
2018-Sep-15 07:30N 39°33' E 002°38'0 0.0
2018-Sep-15 07:03N 39°33' E 002°38'0 0.0
2018-Sep-15 07:00N 39°33' E 002°38'0 0.0
2018-Sep-15 06:29N 39°33' E 002°38'0 0.0
2018-Sep-15 06:02N 39°33' E 002°38'0 0.0
2018-Sep-15 05:56N 39°33' E 002°38'0 0.0
2018-Sep-15 05:29N 39°33' E 002°38'0 0.0
2018-Sep-15 05:02N 39°33' E 002°38'0 0.0
2018-Sep-15 04:59N 39°33' E 002°38'0 0.0
2018-Sep-15 04:29N 39°33' E 002°38'0 0.0
2018-Sep-15 04:02N 39°33' E 002°38'0 0.0
2018-Sep-15 03:59N 39°33' E 002°38'0 0.0
2018-Sep-15 03:29N 39°33' E 002°38'1 2.2
2018-Sep-15 03:03N 39°33' E 002°39'0 7.3
2018-Sep-15 03:00N 39°33' E 002°39'511.0
2018-Sep-15 02:30N 39°28' E 002°35'511.0
2018-Sep-15 02:03N 39°25' E 002°30'112.8
2018-Sep-15 02:00N 39°26' E 002°29'612.8
2018-Sep-15 01:30N 39°29' E 002°22'  

Dump ship's entire track history